sensor_id;sensor_type;location;lat;lon;timestamp;pressure;altitude;pressure_sealevel;temperature;humidity
3748;BME280;1889;50.058;8.688;2023-02-03T00:00:51;101334.23;;;11.07;63.19
3748;BME280;1889;50.058;8.688;2023-02-03T00:03:20;101340.83;;;11.11;63.06
3748;BME280;1889;50.058;8.688;2023-02-03T00:05:50;101340.36;;;11.13;63.05
3748;BME280;1889;50.058;8.688;2023-02-03T00:08:19;101333.78;;;11.14;62.63
3748;BME280;1889;50.058;8.688;2023-02-03T00:10:49;101321.92;;;11.25;62.80
3748;BME280;1889;50.058;8.688;2023-02-03T00:13:18;101317.09;;;11.23;63.04
3748;BME280;1889;50.058;8.688;2023-02-03T00:15:48;101302.59;;;11.21;62.88
3748;BME280;1889;50.058;8.688;2023-02-03T00:18:17;101288.55;;;11.15;63.28
3748;BME280;1889;50.058;8.688;2023-02-03T00:20:47;101286.78;;;11.20;62.97
3748;BME280;1889;50.058;8.688;2023-02-03T00:23:16;101285.92;;;11.15;63.28
3748;BME280;1889;50.058;8.688;2023-02-03T00:25:45;101285.02;;;11.20;63.19
3748;BME280;1889;50.058;8.688;2023-02-03T00:28:15;101284.59;;;11.15;63.44
3748;BME280;1889;50.058;8.688;2023-02-03T00:30:44;101284.61;;;10.96;63.54
3748;BME280;1889;50.058;8.688;2023-02-03T00:33:14;101280.20;;;11.03;63.81
3748;BME280;1889;50.058;8.688;2023-02-03T00:35:43;101293.80;;;11.19;63.50
3748;BME280;1889;50.058;8.688;2023-02-03T00:38:12;101294.66;;;11.36;62.93
3748;BME280;1889;50.058;8.688;2023-02-03T00:40:42;101301.26;;;11.29;63.34
3748;BME280;1889;50.058;8.688;2023-02-03T00:43:11;101305.66;;;11.34;63.20
3748;BME280;1889;50.058;8.688;2023-02-03T00:45:40;101310.02;;;11.35;63.04
3748;BME280;1889;50.058;8.688;2023-02-03T00:48:10;101312.64;;;11.58;62.56
3748;BME280;1889;50.058;8.688;2023-02-03T00:50:39;101310.06;;;11.23;63.56
3748;BME280;1889;50.058;8.688;2023-02-03T00:53:09;101302.58;;;11.42;62.75
3748;BME280;1889;50.058;8.688;2023-02-03T00:55:38;101307.45;;;11.02;63.84
3748;BME280;1889;50.058;8.688;2023-02-03T00:58:08;101302.15;;;11.20;63.70
3748;BME280;1889;50.058;8.688;2023-02-03T01:00:37;101280.66;;;11.08;64.41
3748;BME280;1889;50.058;8.688;2023-02-03T01:03:06;101270.11;;;11.13;63.91
3748;BME280;1889;50.058;8.688;2023-02-03T01:05:37;101257.78;;;11.29;63.55
3748;BME280;1889;50.058;8.688;2023-02-03T01:08:06;101240.28;;;11.00;64.22
3748;BME280;1889;50.058;8.688;2023-02-03T01:10:37;101233.67;;;11.03;64.33
3748;BME280;1889;50.058;8.688;2023-02-03T01:13:06;101217.78;;;11.35;63.25
3748;BME280;1889;50.058;8.688;2023-02-03T01:15:35;101208.14;;;11.30;63.06
3748;BME280;1889;50.058;8.688;2023-02-03T01:18:05;101223.05;;;11.38;63.13
3748;BME280;1889;50.058;8.688;2023-02-03T01:20:35;101243.28;;;11.27;63.08
3748;BME280;1889;50.058;8.688;2023-02-03T01:23:04;101260.03;;;10.90;64.81
3748;BME280;1889;50.058;8.688;2023-02-03T01:25:34;101246.86;;;11.09;64.19
3748;BME280;1889;50.058;8.688;2023-02-03T01:28:04;101240.21;;;11.32;63.53
3748;BME280;1889;50.058;8.688;2023-02-03T01:30:33;101228.73;;;11.44;63.03
3748;BME280;1889;50.058;8.688;2023-02-03T01:33:02;101238.09;;;10.91;64.57
3748;BME280;1889;50.058;8.688;2023-02-03T01:35:33;101238.11;;;10.76;65.63
3748;BME280;1889;50.058;8.688;2023-02-03T01:38:03;101223.20;;;10.78;65.37
3748;BME280;1889;50.058;8.688;2023-02-03T01:40:32;101238.98;;;10.73;65.57
3748;BME280;1889;50.058;8.688;2023-02-03T01:43:01;101238.09;;;10.47;66.39
3748;BME280;1889;50.058;8.688;2023-02-03T01:45:31;101232.84;;;10.51;66.53
3748;BME280;1889;50.058;8.688;2023-02-03T01:48:00;101241.19;;;10.67;66.06
3748;BME280;1889;50.058;8.688;2023-02-03T01:50:32;101243.37;;;10.60;65.94
3748;BME280;1889;50.058;8.688;2023-02-03T01:53:05;101241.61;;;10.93;65.09
3748;BME280;1889;50.058;8.688;2023-02-03T01:55:40;101233.27;;;10.81;65.45
3748;BME280;1889;50.058;8.688;2023-02-03T01:58:31;101227.13;;;10.94;65.00
3748;BME280;1889;50.058;8.688;2023-02-03T02:00:56;101223.60;;;10.79;65.73
3748;BME280;1889;50.058;8.688;2023-02-03T02:03:53;101220.53;;;10.88;65.38
3748;BME280;1889;50.058;8.688;2023-02-03T02:06:07;101223.59;;;11.00;65.04
3748;BME280;1889;50.058;8.688;2023-02-03T02:08:38;101216.59;;;10.94;65.33
3748;BME280;1889;50.058;8.688;2023-02-03T02:11:08;101207.75;;;11.15;64.56
3748;BME280;1889;50.058;8.688;2023-02-03T02:13:38;101206.47;;;11.11;64.61
3748;BME280;1889;50.058;8.688;2023-02-03T02:16:22;101204.24;;;11.15;64.63
3748;BME280;1889;50.058;8.688;2023-02-03T02:22:05;101203.41;;;10.88;65.29
3748;BME280;1889;50.058;8.688;2023-02-03T02:25:01;101207.83;;;10.86;65.57
3748;BME280;1889;50.058;8.688;2023-02-03T02:27:43;101210.41;;;11.11;65.08
3748;BME280;1889;50.058;8.688;2023-02-03T02:30:21;101231.90;;;11.12;64.33
3748;BME280;1889;50.058;8.688;2023-02-03T02:33:12;101231.90;;;11.12;64.33
3748;BME280;1889;50.058;8.688;2023-02-03T02:35:55;101244.25;;;10.94;65.18
3748;BME280;1889;50.058;8.688;2023-02-03T02:38:37;101243.37;;;10.86;65.73
3748;BME280;1889;50.058;8.688;2023-02-03T02:41:12;101231.94;;;10.99;65.39
3748;BME280;1889;50.058;8.688;2023-02-03T02:43:43;101229.23;;;11.28;64.59
3748;BME280;1889;50.058;8.688;2023-02-03T02:46:15;101226.20;;;11.17;64.76
3748;BME280;1889;50.058;8.688;2023-02-03T02:51:21;101240.29;;;10.81;66.00
3748;BME280;1889;50.058;8.688;2023-02-03T02:54:00;101254.31;;;10.96;65.86
3748;BME280;1889;50.058;8.688;2023-02-03T02:56:31;101253.00;;;10.95;65.95
3748;BME280;1889;50.058;8.688;2023-02-03T02:59:03;101249.06;;;10.89;66.02
3748;BME280;1889;50.058;8.688;2023-02-03T03:01:34;101250.81;;;10.97;65.86
3748;BME280;1889;50.058;8.688;2023-02-03T03:04:04;101263.98;;;10.99;65.88
3748;BME280;1889;50.058;8.688;2023-02-03T03:06:39;101263.54;;;10.96;65.98
3748;BME280;1889;50.058;8.688;2023-02-03T03:09:23;101263.55;;;10.98;66.01
3748;BME280;1889;50.058;8.688;2023-02-03T03:11:58;101242.48;;;10.90;66.31
3748;BME280;1889;50.058;8.688;2023-02-03T03:14:30;101238.98;;;10.94;66.48
3748;BME280;1889;50.058;8.688;2023-02-03T03:17:03;101234.13;;;10.98;66.32
3748;BME280;1889;50.058;8.688;2023-02-03T03:19:34;101227.97;;;11.05;66.22
3748;BME280;1889;50.058;8.688;2023-02-03T03:22:09;101229.30;;;10.96;66.49
3748;BME280;1889;50.058;8.688;2023-02-03T03:24:47;101230.18;;;10.88;66.98
3748;BME280;1889;50.058;8.688;2023-02-03T03:27:21;101234.13;;;11.07;66.28
3748;BME280;1889;50.058;8.688;2023-02-03T03:30:04;101246.42;;;11.10;66.14
3748;BME280;1889;50.058;8.688;2023-02-03T03:32:32;101243.80;;;10.99;66.64
3748;BME280;1889;50.058;8.688;2023-02-03T03:35:02;101241.16;;;11.01;66.80
3748;BME280;1889;50.058;8.688;2023-02-03T03:37:40;101239.39;;;11.06;67.08
3748;BME280;1889;50.058;8.688;2023-02-03T03:40:17;101235.01;;;10.87;67.94
3748;BME280;1889;50.058;8.688;2023-02-03T03:42:59;101203.84;;;10.97;68.01
3748;BME280;1889;50.058;8.688;2023-02-03T03:45:41;101209.99;;;11.02;67.93
3748;BME280;1889;50.058;8.688;2023-02-03T03:48:16;101197.23;;;11.09;67.51
3748;BME280;1889;50.058;8.688;2023-02-03T03:50:54;101184.95;;;11.08;67.50
3748;BME280;1889;50.058;8.688;2023-02-03T03:53:19;101191.08;;;11.04;67.72
3748;BME280;1889;50.058;8.688;2023-02-03T03:55:51;101203.34;;;11.20;67.21
3748;BME280;1889;50.058;8.688;2023-02-03T03:58:26;101224.88;;;11.15;67.25
3748;BME280;1889;50.058;8.688;2023-02-03T04:01:04;101227.52;;;11.17;66.87
3748;BME280;1889;50.058;8.688;2023-02-03T04:03:32;101225.34;;;11.08;67.19
3748;BME280;1889;50.058;8.688;2023-02-03T04:06:01;101218.31;;;11.09;66.98
3748;BME280;1889;50.058;8.688;2023-02-03T04:08:30;101214.41;;;10.83;67.76
3748;BME280;1889;50.058;8.688;2023-02-03T04:11:00;101201.20;;;11.00;67.23
3748;BME280;1889;50.058;8.688;2023-02-03T04:13:30;101191.98;;;10.98;66.95
3748;BME280;1889;50.058;8.688;2023-02-03T04:15:59;101199.47;;;10.93;67.21
3748;BME280;1889;50.058;8.688;2023-02-03T04:18:28;101209.13;;;10.92;67.26
3748;BME280;1889;50.058;8.688;2023-02-03T04:20:58;101222.28;;;11.01;67.21
3748;BME280;1889;50.058;8.688;2023-02-03T04:23:27;101224.92;;;11.01;67.13
3748;BME280;1889;50.058;8.688;2023-02-03T04:25:59;101233.24;;;11.08;66.92
3748;BME280;1889;50.058;8.688;2023-02-03T04:28:27;101228.45;;;10.94;67.33
3748;BME280;1889;50.058;8.688;2023-02-03T04:31:00;101228.45;;;10.94;67.33
3748;BME280;1889;50.058;8.688;2023-02-03T04:33:30;101227.10;;;10.97;67.45
3748;BME280;1889;50.058;8.688;2023-02-03T04:35:59;101206.91;;;10.98;67.02
3748;BME280;1889;50.058;8.688;2023-02-03T04:38:28;101197.70;;;10.99;67.05
3748;BME280;1889;50.058;8.688;2023-02-03T04:40:58;101198.16;;;10.79;67.71
3748;BME280;1889;50.058;8.688;2023-02-03T04:43:27;101198.16;;;10.79;67.71
3748;BME280;1889;50.058;8.688;2023-02-03T04:45:58;101219.64;;;10.98;67.37
3748;BME280;1889;50.058;8.688;2023-02-03T04:48:29;101241.61;;;10.93;67.37
3748;BME280;1889;50.058;8.688;2023-02-03T04:51:05;101239.84;;;10.87;68.01
3748;BME280;1889;50.058;8.688;2023-02-03T04:53:35;101249.50;;;10.81;68.87
3748;BME280;1889;50.058;8.688;2023-02-03T04:56:04;101252.12;;;10.88;68.62
3748;BME280;1889;50.058;8.688;2023-02-03T04:58:35;101240.30;;;10.94;68.49
3748;BME280;1889;50.058;8.688;2023-02-03T05:01:08;101230.61;;;10.96;68.45
3748;BME280;1889;50.058;8.688;2023-02-03T05:03:37;101222.30;;;10.92;68.33
3748;BME280;1889;50.058;8.688;2023-02-03T05:06:07;101199.91;;;10.79;68.52
3748;BME280;1889;50.058;8.688;2023-02-03T05:08:36;101202.97;;;10.89;68.80
3748;BME280;1889;50.058;8.688;2023-02-03T05:11:05;101221.44;;;10.78;68.77
3748;BME280;1889;50.058;8.688;2023-02-03T05:13:34;101209.14;;;10.74;69.14
3748;BME280;1889;50.058;8.688;2023-02-03T05:16:04;101204.31;;;10.75;69.22
3748;BME280;1889;50.058;8.688;2023-02-03T05:18:33;101204.31;;;10.75;69.22
3748;BME280;1889;50.058;8.688;2023-02-03T05:21:03;101200.80;;;10.73;68.91
3748;BME280;1889;50.058;8.688;2023-02-03T05:23:32;101178.84;;;10.79;68.79
3748;BME280;1889;50.058;8.688;2023-02-03T05:26:02;101177.55;;;10.73;68.31
3748;BME280;1889;50.058;8.688;2023-02-03T05:28:32;101185.90;;;10.58;68.92
3748;BME280;1889;50.058;8.688;2023-02-03T05:31:02;101193.35;;;10.66;68.59
3748;BME280;1889;50.058;8.688;2023-02-03T05:33:31;101189.41;;;10.68;68.52
3748;BME280;1889;50.058;8.688;2023-02-03T05:36:00;101180.19;;;10.65;68.53
3748;BME280;1889;50.058;8.688;2023-02-03T05:38:30;101181.08;;;10.70;68.51
3748;BME280;1889;50.058;8.688;2023-02-03T05:40:59;101184.58;;;10.66;68.54
3748;BME280;1889;50.058;8.688;2023-02-03T05:43:46;101175.80;;;10.55;68.77
3748;BME280;1889;50.058;8.688;2023-02-03T05:46:15;101179.34;;;10.37;69.12
3748;BME280;1889;50.058;8.688;2023-02-03T05:48:45;101173.61;;;10.56;68.47
3748;BME280;1889;50.058;8.688;2023-02-03T05:51:14;101167.03;;;10.66;68.18
3748;BME280;1889;50.058;8.688;2023-02-03T05:53:43;101172.28;;;10.74;67.71
3748;BME280;1889;50.058;8.688;2023-02-03T05:56:12;101174.05;;;10.67;67.72
3748;BME280;1889;50.058;8.688;2023-02-03T05:58:42;101179.75;;;10.56;67.96
3748;BME280;1889;50.058;8.688;2023-02-03T06:01:11;101174.06;;;10.60;68.18
3748;BME280;1889;50.058;8.688;2023-02-03T06:03:40;101183.71;;;10.59;68.16
3748;BME280;1889;50.058;8.688;2023-02-03T06:06:10;101180.62;;;10.57;68.43
3748;BME280;1889;50.058;8.688;2023-02-03T06:08:39;101189.87;;;10.54;68.23
3748;BME280;1889;50.058;8.688;2023-02-03T06:11:09;101185.48;;;10.45;68.76
3748;BME280;1889;50.058;8.688;2023-02-03T06:13:38;101192.93;;;10.29;69.04
3748;BME280;1889;50.058;8.688;2023-02-03T06:16:08;101178.88;;;10.47;68.56
3748;BME280;1889;50.058;8.688;2023-02-03T06:18:37;101182.81;;;10.63;68.06
3748;BME280;1889;50.058;8.688;2023-02-03T06:21:06;101176.24;;;10.68;67.75
3748;BME280;1889;50.058;8.688;2023-02-03T06:23:36;101173.62;;;10.69;67.69
3748;BME280;1889;50.058;8.688;2023-02-03T06:26:05;101179.31;;;10.66;67.14
3748;BME280;1889;50.058;8.688;2023-02-03T06:28:34;101187.21;;;10.66;67.60
3748;BME280;1889;50.058;8.688;2023-02-03T06:31:05;101176.27;;;10.45;67.81
3748;BME280;1889;50.058;8.688;2023-02-03T06:33:34;101174.05;;;10.78;67.39
3748;BME280;1889;50.058;8.688;2023-02-03T06:36:04;101177.55;;;10.65;67.30
3748;BME280;1889;50.058;8.688;2023-02-03T06:38:33;101170.13;;;10.52;67.90
3748;BME280;1889;50.058;8.688;2023-02-03T06:41:03;101165.28;;;10.59;67.66
3748;BME280;1889;50.058;8.688;2023-02-03T06:43:32;101167.47;;;10.69;67.35
3748;BME280;1889;50.058;8.688;2023-02-03T06:46:02;101171.42;;;10.69;67.00
3748;BME280;1889;50.058;8.688;2023-02-03T06:48:31;101167.48;;;10.60;67.46
3748;BME280;1889;50.058;8.688;2023-02-03T06:51:01;101176.26;;;10.62;67.45
3748;BME280;1889;50.058;8.688;2023-02-03T06:53:31;101198.19;;;10.58;67.63
3748;BME280;1889;50.058;8.688;2023-02-03T06:56:00;101209.60;;;10.52;67.61
3748;BME280;1889;50.058;8.688;2023-02-03T06:58:30;101210.04;;;10.61;67.44
3748;BME280;1889;50.058;8.688;2023-02-03T07:00:59;101201.70;;;10.58;67.50
3748;BME280;1889;50.058;8.688;2023-02-03T07:03:29;101197.73;;;10.77;66.86
3748;BME280;1889;50.058;8.688;2023-02-03T07:05:58;101199.47;;;10.79;66.78
3748;BME280;1889;50.058;8.688;2023-02-03T07:08:27;101199.51;;;10.52;67.42
3748;BME280;1889;50.058;8.688;2023-02-03T07:10:57;101185.47;;;10.51;67.60
3748;BME280;1889;50.058;8.688;2023-02-03T07:13:26;101186.75;;;10.71;67.12
3748;BME280;1889;50.058;8.688;2023-02-03T07:15:55;101191.16;;;10.78;66.85
3748;BME280;1889;50.058;8.688;2023-02-03T07:18:25;101195.98;;;10.39;67.35
3748;BME280;1889;50.058;8.688;2023-02-03T07:20:54;101204.77;;;10.70;67.15
3748;BME280;1889;50.058;8.688;2023-02-03T07:23:23;101202.56;;;10.85;66.07
3748;BME280;1889;50.058;8.688;2023-02-03T07:25:52;101202.99;;;10.84;65.86
3748;BME280;1889;50.058;8.688;2023-02-03T07:28:22;101191.13;;;10.80;66.15
3748;BME280;1889;50.058;8.688;2023-02-03T07:30:51;101195.98;;;10.65;66.41
3748;BME280;1889;50.058;8.688;2023-02-03T07:33:20;101199.50;;;10.67;66.56
3748;BME280;1889;50.058;8.688;2023-02-03T07:35:57;101181.91;;;10.80;66.29
3748;BME280;1889;50.058;8.688;2023-02-03T07:38:27;101188.03;;;10.95;65.45
3748;BME280;1889;50.058;8.688;2023-02-03T07:40:57;101201.64;;;10.95;65.21
3748;BME280;1889;50.058;8.688;2023-02-03T07:43:26;101194.67;;;10.77;65.23
3748;BME280;1889;50.058;8.688;2023-02-03T07:45:55;101202.55;;;10.83;65.37
3748;BME280;1889;50.058;8.688;2023-02-03T07:48:25;101206.91;;;10.99;65.24
3748;BME280;1889;50.058;8.688;2023-02-03T07:50:54;101203.42;;;10.81;65.76
3748;BME280;1889;50.058;8.688;2023-02-03T07:53:23;101199.91;;;10.91;64.89
3748;BME280;1889;50.058;8.688;2023-02-03T07:55:52;101199.87;;;10.95;64.68
3748;BME280;1889;50.058;8.688;2023-02-03T07:58:22;101211.73;;;11.09;64.35
3748;BME280;1889;50.058;8.688;2023-02-03T08:00:51;101215.71;;;10.92;64.67
3748;BME280;1889;50.058;8.688;2023-02-03T08:03:20;101222.31;;;10.76;65.14
3748;BME280;1889;50.058;8.688;2023-02-03T08:05:50;101214.83;;;11.02;64.14
3748;BME280;1889;50.058;8.688;2023-02-03T08:08:20;101206.02;;;11.03;63.76
3748;BME280;1889;50.058;8.688;2023-02-03T08:10:49;101213.09;;;10.85;64.42
3748;BME280;1889;50.058;8.688;2023-02-03T08:13:19;101227.53;;;11.09;63.98
3748;BME280;1889;50.058;8.688;2023-02-03T08:15:48;101210.81;;;11.25;63.43
3748;BME280;1889;50.058;8.688;2023-02-03T08:18:17;101196.75;;;11.22;63.43
3748;BME280;1889;50.058;8.688;2023-02-03T08:20:47;101201.12;;;11.29;62.69
3748;BME280;1889;50.058;8.688;2023-02-03T08:23:16;101196.28;;;11.30;62.93
3748;BME280;1889;50.058;8.688;2023-02-03T08:25:50;101187.97;;;11.26;62.75
3748;BME280;1889;50.058;8.688;2023-02-03T08:28:20;101193.21;;;11.29;62.65
3748;BME280;1889;50.058;8.688;2023-02-03T08:30:49;101190.58;;;11.30;62.84
3748;BME280;1889;50.058;8.688;2023-02-03T08:33:19;101187.03;;;11.36;62.65
3748;BME280;1889;50.058;8.688;2023-02-03T08:35:49;101180.88;;;11.43;62.29
3748;BME280;1889;50.058;8.688;2023-02-03T08:38:18;101182.13;;;11.52;62.01
3748;BME280;1889;50.058;8.688;2023-02-03T08:40:49;101184.02;;;11.26;62.59
3748;BME280;1889;50.058;8.688;2023-02-03T08:43:18;101180.50;;;11.19;62.49
3748;BME280;1889;50.058;8.688;2023-02-03T08:45:47;101185.77;;;11.22;62.82
3748;BME280;1889;50.058;8.688;2023-02-03T08:48:16;101185.24;;;11.44;61.80
3748;BME280;1889;50.058;8.688;2023-02-03T08:50:46;101187.94;;;11.35;62.13
3748;BME280;1889;50.058;8.688;2023-02-03T08:53:17;101177.41;;;11.32;62.29
3748;BME280;1889;50.058;8.688;2023-02-03T08:55:46;101174.30;;;11.41;62.38
3748;BME280;1889;50.058;8.688;2023-02-03T08:58:16;101166.86;;;11.33;62.42
3748;BME280;1889;50.058;8.688;2023-02-03T09:00:45;101167.70;;;11.41;61.79
3748;BME280;1889;50.058;8.688;2023-02-03T09:03:16;101175.98;;;11.56;61.91
3748;BME280;1889;50.058;8.688;2023-02-03T09:05:45;101168.62;;;11.30;62.09
3748;BME280;1889;50.058;8.688;2023-02-03T09:08:14;101158.00;;;11.48;61.82
3748;BME280;1889;50.058;8.688;2023-02-03T09:10:44;101160.16;;;11.55;61.92
3748;BME280;1889;50.058;8.688;2023-02-03T09:13:13;101162.06;;;11.27;62.28
3748;BME280;1889;50.058;8.688;2023-02-03T09:15:42;101157.52;;;11.59;61.67
3748;BME280;1889;50.058;8.688;2023-02-03T09:18:12;101157.48;;;11.61;61.73
3748;BME280;1889;50.058;8.688;2023-02-03T09:20:41;101165.87;;;11.57;61.00
3748;BME280;1889;50.058;8.688;2023-02-03T09:23:10;101167.13;;;11.75;61.28
3748;BME280;1889;50.058;8.688;2023-02-03T09:25:39;101175.54;;;11.58;61.07
3748;BME280;1889;50.058;8.688;2023-02-03T09:28:09;101190.78;;;11.88;60.62
3748;BME280;1889;50.058;8.688;2023-02-03T09:30:38;101196.89;;;11.96;60.21
3748;BME280;1889;50.058;8.688;2023-02-03T09:33:07;101189.86;;;11.93;60.21
3748;BME280;1889;50.058;8.688;2023-02-03T09:35:37;101184.96;;;12.06;59.35
3748;BME280;1889;50.058;8.688;2023-02-03T09:38:08;101199.53;;;11.96;59.59
3748;BME280;1889;50.058;8.688;2023-02-03T09:40:38;101193.52;;;11.65;60.33
3748;BME280;1889;50.058;8.688;2023-02-03T09:43:33;101173.29;;;11.74;59.72
3748;BME280;1889;50.058;8.688;2023-02-03T09:45:40;101165.83;;;11.66;60.02
3748;BME280;1889;50.058;8.688;2023-02-03T09:48:19;101165.39;;;11.67;59.82
3748;BME280;1889;50.058;8.688;2023-02-03T09:53:43;101167.09;;;11.81;59.08
3748;BME280;1889;50.058;8.688;2023-02-03T09:56:28;101152.48;;;11.95;58.98
3748;BME280;1889;50.058;8.688;2023-02-03T09:58:57;101150.09;;;11.48;60.01
3748;BME280;1889;50.058;8.688;2023-02-03T10:01:30;101145.66;;;11.59;59.82
3748;BME280;1889;50.058;8.688;2023-02-03T10:04:03;101134.58;;;11.70;59.52
3748;BME280;1889;50.058;8.688;2023-02-03T10:06:38;101145.98;;;11.81;58.78
3748;BME280;1889;50.058;8.688;2023-02-03T10:15:02;101148.52;;;11.97;58.71
3748;BME280;1889;50.058;8.688;2023-02-03T10:17:38;101144.06;;;12.06;58.10
3748;BME280;1889;50.058;8.688;2023-02-03T10:20:15;101137.46;;;12.08;58.06
3748;BME280;1889;50.058;8.688;2023-02-03T10:22:50;101128.30;;;11.94;58.55
3748;BME280;1889;50.058;8.688;2023-02-03T10:25:25;101129.63;;;11.93;58.25
3748;BME280;1889;50.058;8.688;2023-02-03T10:27:55;101135.59;;;12.20;57.67
3748;BME280;1889;50.058;8.688;2023-02-03T10:30:32;101139.05;;;12.26;57.50
3748;BME280;1889;50.058;8.688;2023-02-03T10:33:16;101134.08;;;12.42;56.92
3748;BME280;1889;50.058;8.688;2023-02-03T10:35:53;101145.22;;;12.24;57.00
3748;BME280;1889;50.058;8.688;2023-02-03T10:38:49;101117.11;;;12.20;56.81
3748;BME280;1889;50.058;8.688;2023-02-03T10:41:18;101127.79;;;12.07;56.87
3748;BME280;1889;50.058;8.688;2023-02-03T10:43:50;101144.45;;;12.12;57.00
3748;BME280;1889;50.058;8.688;2023-02-03T10:46:28;101151.38;;;12.25;56.63
3748;BME280;1889;50.058;8.688;2023-02-03T10:48:57;101151.44;;;12.17;56.78
3748;BME280;1889;50.058;8.688;2023-02-03T10:51:31;101149.72;;;12.15;56.93
3748;BME280;1889;50.058;8.688;2023-02-03T10:53:59;101156.83;;;12.04;56.85
3748;BME280;1889;50.058;8.688;2023-02-03T10:56:36;101160.39;;;12.00;57.20
3748;BME280;1889;50.058;8.688;2023-02-03T10:59:09;101156.75;;;12.14;56.74
3748;BME280;1889;50.058;8.688;2023-02-03T11:01:46;101168.30;;;11.98;57.46
3748;BME280;1889;50.058;8.688;2023-02-03T11:04:26;101166.93;;;12.06;57.49
3748;BME280;1889;50.058;8.688;2023-02-03T11:06:58;101164.12;;;12.26;56.88
3748;BME280;1889;50.058;8.688;2023-02-03T11:09:40;101165.73;;;11.86;57.61
3748;BME280;1889;50.058;8.688;2023-02-03T11:12:17;101148.03;;;12.03;56.99
3748;BME280;1889;50.058;8.688;2023-02-03T11:14:48;101134.72;;;12.17;56.81
3748;BME280;1889;50.058;8.688;2023-02-03T11:17:26;101130.88;;;12.05;57.31
3748;BME280;1889;50.058;8.688;2023-02-03T11:19:52;101118.51;;;12.10;57.39
3748;BME280;1889;50.058;8.688;2023-02-03T11:22:30;101109.14;;;12.25;57.07
3748;BME280;1889;50.058;8.688;2023-02-03T11:25:02;101099.52;;;12.21;57.00
3748;BME280;1889;50.058;8.688;2023-02-03T11:27:33;101102.95;;;12.31;56.84
3748;BME280;1889;50.058;8.688;2023-02-03T11:30:23;101096.35;;;12.32;56.86
3748;BME280;1889;50.058;8.688;2023-02-03T11:32:53;101087.78;;;12.06;57.42
3748;BME280;1889;50.058;8.688;2023-02-03T11:35:25;101102.30;;;12.04;58.12
3748;BME280;1889;50.058;8.688;2023-02-03T11:38:01;101091.36;;;11.96;58.64
3748;BME280;1889;50.058;8.688;2023-02-03T11:40:32;101109.25;;;12.16;58.77
3748;BME280;1889;50.058;8.688;2023-02-03T11:43:16;101109.25;;;12.16;58.77
3748;BME280;1889;50.058;8.688;2023-02-03T11:45:40;101117.98;;;12.24;58.35
3748;BME280;1889;50.058;8.688;2023-02-03T11:48:17;101124.53;;;12.27;58.49
3748;BME280;1889;50.058;8.688;2023-02-03T11:59:45;101131.98;;;12.32;58.49
3748;BME280;1889;50.058;8.688;2023-02-03T12:02:36;101112.13;;;12.37;58.42
3748;BME280;1889;50.058;8.688;2023-02-03T12:10:54;101099.90;;;12.27;59.45
3748;BME280;1889;50.058;8.688;2023-02-03T12:13:48;101093.16;;;12.42;59.24
3748;BME280;1889;50.058;8.688;2023-02-03T12:16:25;101086.64;;;12.33;59.50
3748;BME280;1889;50.058;8.688;2023-02-03T12:19:05;101084.27;;;12.02;60.61
3748;BME280;1889;50.058;8.688;2023-02-03T12:21:41;101084.27;;;12.02;60.61
3748;BME280;1889;50.058;8.688;2023-02-03T12:27:24;101064.16;;;12.40;59.88
3748;BME280;1889;50.058;8.688;2023-02-03T12:30:11;101046.23;;;12.26;60.51
3748;BME280;1889;50.058;8.688;2023-02-03T12:33:18;101041.31;;;12.33;60.65
3748;BME280;1889;50.058;8.688;2023-02-03T12:35:42;101036.44;;;12.40;60.50
3748;BME280;1889;50.058;8.688;2023-02-03T12:38:12;101062.64;;;12.13;62.04
3748;BME280;1889;50.058;8.688;2023-02-03T12:40:45;101062.64;;;12.13;62.04
3748;BME280;1889;50.058;8.688;2023-02-03T12:43:24;101073.78;;;11.96;62.82
3748;BME280;1889;50.058;8.688;2023-02-03T12:45:59;101066.02;;;11.70;64.10
3748;BME280;1889;50.058;8.688;2023-02-03T12:48:45;101080.20;;;11.53;64.68
3748;BME280;1889;50.058;8.688;2023-02-03T12:51:25;101090.34;;;11.48;65.33
3748;BME280;1889;50.058;8.688;2023-02-03T12:53:50;101095.56;;;11.58;65.45
3748;BME280;1889;50.058;8.688;2023-02-03T12:56:30;101091.62;;;11.53;65.81
3748;BME280;1889;50.058;8.688;2023-02-03T12:59:05;101094.16;;;11.68;65.76
3748;BME280;1889;50.058;8.688;2023-02-03T13:01:40;101094.16;;;11.68;65.76
3748;BME280;1889;50.058;8.688;2023-02-03T13:04:30;101089.30;;;11.74;65.72
3748;BME280;1889;50.058;8.688;2023-02-03T13:07:14;101089.30;;;11.74;65.72
3748;BME280;1889;50.058;8.688;2023-02-03T13:09:57;101068.83;;;11.44;67.16
3748;BME280;1889;50.058;8.688;2023-02-03T13:12:32;101068.83;;;11.44;67.16
3748;BME280;1889;50.058;8.688;2023-02-03T13:15:21;101062.28;;;11.35;67.21
3748;BME280;1889;50.058;8.688;2023-02-03T13:20:53;101056.56;;;11.42;67.64
3748;BME280;1889;50.058;8.688;2023-02-03T13:23:23;101039.48;;;11.30;68.52
3748;BME280;1889;50.058;8.688;2023-02-03T13:29:21;101038.41;;;11.60;67.78
3748;BME280;1889;50.058;8.688;2023-02-03T13:32:19;101053.63;;;11.17;69.83
3748;BME280;1889;50.058;8.688;2023-02-03T13:37:26;101051.73;;;11.43;69.62
3748;BME280;1889;50.058;8.688;2023-02-03T13:40:08;101053.14;;;11.22;70.00
3748;BME280;1889;50.058;8.688;2023-02-03T13:42:41;101063.59;;;11.35;69.97
3748;BME280;1889;50.058;8.688;2023-02-03T13:45:31;101061.88;;;11.31;70.15
3748;BME280;1889;50.058;8.688;2023-02-03T13:48:12;101053.82;;;11.59;69.36
3748;BME280;1889;50.058;8.688;2023-02-03T13:50:40;101052.70;;;11.27;70.75
3748;BME280;1889;50.058;8.688;2023-02-03T13:53:20;101049.05;;;11.47;70.11
3748;BME280;1889;50.058;8.688;2023-02-03T13:55:58;101044.55;;;11.62;69.44
3748;BME280;1889;50.058;8.688;2023-02-03T13:58:38;101058.60;;;11.65;69.83
3748;BME280;1889;50.058;8.688;2023-02-03T14:01:27;101052.66;;;11.30;71.40
3748;BME280;1889;50.058;8.688;2023-02-03T14:03:57;101048.11;;;11.56;70.50
3748;BME280;1889;50.058;8.688;2023-02-03T14:07:19;101048.11;;;11.56;70.50
3748;BME280;1889;50.058;8.688;2023-02-03T14:09:18;101033.78;;;11.30;71.97
3748;BME280;1889;50.058;8.688;2023-02-03T14:11:38;101021.03;;;11.33;72.24
3748;BME280;1889;50.058;8.688;2023-02-03T14:16:41;101051.06;;;11.74;70.78
3748;BME280;1889;50.058;8.688;2023-02-03T14:19:52;101059.34;;;11.85;70.54
3748;BME280;1889;50.058;8.688;2023-02-03T14:21:50;101061.88;;;11.34;72.76